createdAt,value
2018-07-27T00:00:01.031Z,48.59
2018-07-27T00:03:04.453Z,49.50
2018-07-27T00:06:07.613Z,48.92
2018-07-27T00:09:12.658Z,49.31
2018-07-27T00:12:15.815Z,48.80
2018-07-27T00:15:19.111Z,48.26
2018-07-27T00:18:23.337Z,49.07
2018-07-27T00:21:26.476Z,48.61
2018-07-27T00:24:29.840Z,49.60
2018-07-27T00:27:32.988Z,48.59
2018-07-27T00:30:36.333Z,48.40
2018-07-27T00:33:39.479Z,49.16
2018-07-27T00:36:42.675Z,48.91
2018-07-27T00:39:45.819Z,49.00
2018-07-27T00:42:48.962Z,47.91
2018-07-27T00:45:53.128Z,48.51
2018-07-27T00:48:56.329Z,49.81
2018-07-27T00:51:59.525Z,48.29
2018-07-27T00:55:02.644Z,49.70
2018-07-27T00:58:05.923Z,48.61
2018-07-27T01:01:09.208Z,48.25
2018-07-27T01:04:12.526Z,49.60
2018-07-27T01:07:15.675Z,49.57
2018-07-27T01:10:18.867Z,49.98
2018-07-27T01:13:23.008Z,50.44
2018-07-27T01:16:26.186Z,50.48
2018-07-27T01:19:29.324Z,51.44
2018-07-27T01:22:32.630Z,51.58
2018-07-27T01:25:35.775Z,50.10
2018-07-27T01:28:38.912Z,51.39
2018-07-27T01:31:42.108Z,50.83
2018-07-27T01:34:45.259Z,50.52
2018-07-27T01:37:48.399Z,50.37
2018-07-27T01:40:52.708Z,51.04
2018-07-27T01:43:55.887Z,51.15
2018-07-27T01:46:59.077Z,50.41
2018-07-27T01:50:02.226Z,50.90
2018-07-27T01:53:05.503Z,50.41
2018-07-27T01:56:08.659Z,51.18
2018-07-27T01:59:11.839Z,52.16
2018-07-27T02:02:15.016Z,52.69
2018-07-27T02:05:18.175Z,53.18
2018-07-27T02:08:22.008Z,53.69
2018-07-27T02:11:25.380Z,53.97
2018-07-27T02:14:28.559Z,53.60
2018-07-27T02:17:31.731Z,53.48
2018-07-27T02:20:35.026Z,53.76
2018-07-27T02:23:38.202Z,54.13
2018-07-27T02:26:41.287Z,53.51
2018-07-27T02:29:44.442Z,53.74
2018-07-27T02:32:47.823Z,52.50
2018-07-27T02:35:51.929Z,52.87
2018-07-27T02:38:55.060Z,53.36
2018-07-27T02:41:58.183Z,55.20
2018-07-27T02:45:01.331Z,55.43
2018-07-27T02:48:04.488Z,55.75
2018-07-27T02:51:07.757Z,56.04
2018-07-27T02:54:10.879Z,54.91
2018-07-27T02:57:14.030Z,55.83
2018-07-27T03:00:17.147Z,55.24
2018-07-27T03:03:21.452Z,56.37
2018-07-27T03:06:25.399Z,56.54
2018-07-27T03:09:28.551Z,55.53
2018-07-27T03:12:31.710Z,55.59
2018-07-27T03:15:34.835Z,56.36
2018-07-27T03:18:38.004Z,56.96
2018-07-27T03:21:41.145Z,57.89
2018-07-27T03:24:44.298Z,58.62
2018-07-27T03:27:47.440Z,59.60
2018-07-27T03:30:51.252Z,59.74
2018-07-27T03:33:54.395Z,60.02
2018-07-27T03:36:57.527Z,60.30
2018-07-27T03:40:00.715Z,60.69
2018-07-27T03:43:03.847Z,60.73
2018-07-27T03:46:07.198Z,60.77
2018-07-27T03:49:10.336Z,60.74
2018-07-27T03:52:13.485Z,61.43
2018-07-27T03:55:16.799Z,61.42
2018-07-27T03:58:20.381Z,61.03
2018-07-27T04:01:23.523Z,60.94
2018-07-27T04:04:26.684Z,61.20
2018-07-27T04:07:29.828Z,61.17
2018-07-27T04:10:32.956Z,61.22
2018-07-27T04:13:36.090Z,60.73
2018-07-27T04:16:39.246Z,60.87
2018-07-27T04:19:42.367Z,60.97
2018-07-27T04:22:45.519Z,60.69
2018-07-27T04:25:48.651Z,60.55
2018-07-27T04:28:52.450Z,60.71
2018-07-27T04:31:55.583Z,60.92
2018-07-27T04:34:58.867Z,61.02
2018-07-27T04:38:02.111Z,60.71
2018-07-27T04:41:05.251Z,59.36
2018-07-27T04:44:08.388Z,60.82
2018-07-27T04:47:11.515Z,60.95
2018-07-27T04:50:14.683Z,60.33
2018-07-27T04:53:17.827Z,60.60
2018-07-27T04:56:21.452Z,60.15
2018-07-27T04:59:24.638Z,60.13
2018-07-27T05:02:27.783Z,59.97
2018-07-27T05:05:30.911Z,59.43
2018-07-27T05:08:38.252Z,59.63
2018-07-27T05:11:41.658Z,59.63
2018-07-27T05:14:44.796Z,58.87
2018-07-27T05:17:53.740Z,58.38
2018-07-27T05:20:56.900Z,57.63
2018-07-27T05:24:00.195Z,57.16
2018-07-27T05:27:03.486Z,58.43
2018-07-27T05:30:06.659Z,58.21
2018-07-27T05:33:09.983Z,54.62
2018-07-27T05:36:13.136Z,54.17
2018-07-27T05:39:16.319Z,53.74
2018-07-27T05:42:19.544Z,52.83
2018-07-27T05:45:23.664Z,51.60
2018-07-27T05:48:26.872Z,51.40
2018-07-27T05:51:30.175Z,50.39
2018-07-27T05:54:33.447Z,50.17
2018-07-27T05:57:36.661Z,49.91
2018-07-27T06:00:39.867Z,50.31
2018-07-27T06:03:43.063Z,49.68
2018-07-27T06:06:46.259Z,48.78
2018-07-27T06:09:49.428Z,48.71
2018-07-27T06:12:52.720Z,47.55
2018-07-27T06:15:55.941Z,48.02
2018-07-27T06:18:59.135Z,47.51
2018-07-27T06:22:02.435Z,47.84
2018-07-27T06:25:05.669Z,47.48
2018-07-27T06:28:08.885Z,47.12
2018-07-27T06:31:12.032Z,47.21
2018-07-27T06:34:15.185Z,47.09
2018-07-27T06:37:18.315Z,46.67
2018-07-27T06:40:21.687Z,46.67
2018-07-27T06:43:24.829Z,46.44
2018-07-27T06:46:27.964Z,46.67
2018-07-27T06:49:31.131Z,46.83
2018-07-27T06:52:34.410Z,46.27
2018-07-27T06:55:37.558Z,46.76
2018-07-27T06:58:40.699Z,46.13
2018-07-27T07:01:44.783Z,45.76
2018-07-27T07:04:47.985Z,45.56
2018-07-27T07:07:51.175Z,45.98
2018-07-27T07:10:54.407Z,44.70
2018-07-27T07:13:57.550Z,44.23
2018-07-27T07:17:00.662Z,43.68
2018-07-27T07:20:04.093Z,42.40
2018-07-27T07:23:07.215Z,42.34
2018-07-27T07:26:10.870Z,42.41
2018-07-27T07:29:13.694Z,41.88
2018-07-27T07:32:16.839Z,41.37
2018-07-27T07:35:19.956Z,41.69
2018-07-27T07:38:23.078Z,41.82
2018-07-27T07:41:26.229Z,41.06
2018-07-27T07:44:29.375Z,41.10
2018-07-27T07:47:32.576Z,41.28
2018-07-27T07:50:35.802Z,40.43
2018-07-27T07:53:41.749Z,40.82
2018-07-27T07:56:44.931Z,40.94
2018-07-27T07:59:48.216Z,40.51
2018-07-27T08:02:51.560Z,40.42
2018-07-27T08:05:54.947Z,40.47
2018-07-27T08:08:58.071Z,39.83
2018-07-27T08:12:01.391Z,40.03
2018-07-27T08:15:04.743Z,40.38
2018-07-27T08:18:07.889Z,40.29
2018-07-27T08:21:11.179Z,40.08
2018-07-27T08:24:14.331Z,40.34
2018-07-27T08:27:17.663Z,39.23
2018-07-27T08:30:20.812Z,39.63
2018-07-27T08:33:23.936Z,39.04
2018-07-27T08:36:27.083Z,38.66
2018-07-27T08:39:31.450Z,38.74
2018-07-27T08:42:34.671Z,38.51
2018-07-27T08:45:37.820Z,38.34
2018-07-27T08:48:40.958Z,38.63
2018-07-27T08:51:44.101Z,38.84
2018-07-27T08:54:47.234Z,39.25
2018-07-27T08:57:50.369Z,38.19
2018-07-27T09:00:56.053Z,38.78
2018-07-27T09:03:59.195Z,38.77
2018-07-27T09:07:02.334Z,38.83
2018-07-27T09:10:05.708Z,39.46
2018-07-27T09:16:11.083Z,38.36
2018-07-27T09:19:14.216Z,37.37
2018-07-27T09:22:17.449Z,36.73
2018-07-27T09:25:21.225Z,36.38
2018-07-27T09:28:24.079Z,36.10
2018-07-27T09:31:27.457Z,35.35
2018-07-27T09:34:30.577Z,34.29
2018-07-27T09:37:33.728Z,34.76
2018-07-27T09:40:37.069Z,34.26
2018-07-27T09:43:41.243Z,34.38
2018-07-27T09:46:44.360Z,34.67
2018-07-27T09:49:47.519Z,34.36
2018-07-27T09:52:50.780Z,33.85
2018-07-27T09:55:53.891Z,33.82
2018-07-27T09:58:57.174Z,33.01
2018-07-27T10:02:00.358Z,32.41
2018-07-27T10:05:03.531Z,32.04
2018-07-27T10:08:06.723Z,32.80
2018-07-27T10:11:09.880Z,32.14
2018-07-27T10:14:13.012Z,32.94
2018-07-27T10:17:16.144Z,33.08
2018-07-27T10:20:19.286Z,31.43
2018-07-27T10:23:22.490Z,31.49
2018-07-27T10:26:25.626Z,31.47
2018-07-27T10:29:28.767Z,31.04
2018-07-27T10:32:31.926Z,30.11
2018-07-27T10:35:35.098Z,30.29
2018-07-27T10:38:38.261Z,30.54
2018-07-27T10:41:41.385Z,31.08
2018-07-27T10:44:44.526Z,29.85
2018-07-27T10:47:47.669Z,29.81
2018-07-27T10:50:50.873Z,30.05
2018-07-27T10:53:54.060Z,29.79
2018-07-27T10:56:57.233Z,29.53
2018-07-27T11:00:00.387Z,29.62
2018-07-27T11:03:03.538Z,30.02
2018-07-27T11:06:06.921Z,29.28
2018-07-27T11:09:10.853Z,29.66
2018-07-27T11:12:14.240Z,29.14
2018-07-27T11:15:17.448Z,28.25
2018-07-27T11:18:20.541Z,27.58
2018-07-27T11:21:23.803Z,27.94
2018-07-27T11:24:26.972Z,27.93
2018-07-27T11:27:30.213Z,27.90
2018-07-27T11:30:33.355Z,28.11
2018-07-27T11:33:36.710Z,28.14
2018-07-27T11:36:39.851Z,27.90
2018-07-27T11:39:44.021Z,28.13
2018-07-27T11:42:47.176Z,27.27
2018-07-27T11:45:50.483Z,26.92
2018-07-27T11:48:53.887Z,26.80
2018-07-27T11:51:57.194Z,25.75
2018-07-27T11:55:01.160Z,25.87
2018-07-27T11:58:04.467Z,25.57
2018-07-27T12:01:08.125Z,25.62
2018-07-27T12:04:11.476Z,25.19
2018-07-27T12:07:14.740Z,24.24
2018-07-27T12:10:17.979Z,22.39
2018-07-27T12:13:21.309Z,21.93
2018-07-27T12:16:24.579Z,22.08
2018-07-27T12:19:27.774Z,21.54
2018-07-27T12:22:31.121Z,21.41
2018-07-27T12:25:34.354Z,22.20
2018-07-27T12:28:37.467Z,22.23
2018-07-27T12:31:40.786Z,22.02
2018-07-27T12:34:44.104Z,21.45
2018-07-27T12:37:47.466Z,22.00
2018-07-27T12:40:50.887Z,21.04
2018-07-27T12:43:54.235Z,20.88
2018-07-27T12:46:57.870Z,20.36
2018-07-27T12:50:01.143Z,19.91
2018-07-27T12:53:04.715Z,20.22
2018-07-27T12:56:08.213Z,19.04
2018-07-27T12:59:11.463Z,19.44
2018-07-27T13:02:14.705Z,18.84
2018-07-27T13:05:18.199Z,19.30
2018-07-27T13:08:21.600Z,18.33
2018-07-27T13:11:24.955Z,18.80
2018-07-27T13:14:28.279Z,18.53
2018-07-27T13:17:31.479Z,17.66
2018-07-27T13:20:46.679Z,17.35
2018-07-27T13:23:56.416Z,17.41
2018-07-27T13:26:59.664Z,17.73
2018-07-27T13:30:03.022Z,17.86
2018-07-27T13:33:06.540Z,17.91
2018-07-27T13:36:09.776Z,18.47
2018-07-27T13:39:13.058Z,19.17
2018-07-27T13:42:25.019Z,18.91
2018-07-27T13:45:28.389Z,18.07
2018-07-27T13:48:31.747Z,17.36
2018-07-27T13:51:35.099Z,17.65
2018-07-27T13:54:38.270Z,16.01
2018-07-27T13:57:41.644Z,17.69
2018-07-27T14:00:45.101Z,18.33
2018-07-27T14:03:48.347Z,18.07
2018-07-27T14:06:52.929Z,18.14
2018-07-27T14:09:56.187Z,18.18
2018-07-27T14:12:59.484Z,17.85
2018-07-27T14:16:02.670Z,17.49
2018-07-27T14:19:06.100Z,17.52
2018-07-27T14:22:09.569Z,17.03
2018-07-27T14:25:12.670Z,16.18
2018-07-27T14:28:16.096Z,16.41
2018-07-27T14:31:19.369Z,16.82
2018-07-27T14:34:22.624Z,15.95
2018-07-27T14:37:25.859Z,15.91
2018-07-27T14:40:29.241Z,16.51
2018-07-27T14:43:32.450Z,16.43
2018-07-27T14:46:36.188Z,17.52
2018-07-27T14:49:39.482Z,17.44
2018-07-27T14:52:42.832Z,17.05
2018-07-27T14:55:46.276Z,16.80
2018-07-27T14:58:49.592Z,16.57
2018-07-27T15:01:52.795Z,17.27
2018-07-27T15:04:56.142Z,17.09
2018-07-27T15:07:59.339Z,16.67
2018-07-27T15:11:02.543Z,17.86
2018-07-27T15:14:05.863Z,17.99
2018-07-27T15:17:09.163Z,17.34
2018-07-27T15:20:12.680Z,17.58
2018-07-27T15:23:16.300Z,17.83
2018-07-27T15:26:19.552Z,17.79
2018-07-27T15:29:23.004Z,17.92
2018-07-27T15:32:26.383Z,17.18
2018-07-27T15:35:29.652Z,17.83
2018-07-27T15:38:33.130Z,17.96
2018-07-27T15:41:36.875Z,17.86
2018-07-27T15:44:40.291Z,17.31
2018-07-27T15:47:43.463Z,17.78
2018-07-27T15:50:46.893Z,17.85
2018-07-27T15:53:50.151Z,17.70
2018-07-27T15:56:53.708Z,17.45
2018-07-27T15:59:57.262Z,18.21
2018-07-27T16:03:00.551Z,18.36
2018-07-27T16:06:03.856Z,18.43
2018-07-27T16:09:08.635Z,17.99
2018-07-27T16:12:12.040Z,18.15
2018-07-27T16:15:15.464Z,18.36
2018-07-27T16:18:18.675Z,18.97
2018-07-27T16:21:21.897Z,19.74
2018-07-27T16:24:25.192Z,19.56
2018-07-27T16:27:28.451Z,20.15
2018-07-27T16:30:31.844Z,19.65
2018-07-27T16:33:35.114Z,20.15
2018-07-27T16:36:38.348Z,20.62
2018-07-27T16:39:41.629Z,20.25
2018-07-27T16:42:44.883Z,20.77
2018-07-27T16:45:48.304Z,20.45
2018-07-27T16:48:51.612Z,21.02
2018-07-27T16:51:54.918Z,21.23
2018-07-27T16:54:58.155Z,21.14
2018-07-27T16:58:01.308Z,20.75
2018-07-27T17:01:04.889Z,21.16
2018-07-27T17:04:08.163Z,21.03
2018-07-27T17:07:11.463Z,21.05
2018-07-27T17:10:14.791Z,21.30
2018-07-27T17:13:18.288Z,21.35
2018-07-27T17:16:21.590Z,21.33
2018-07-27T17:19:24.859Z,21.33
2018-07-27T17:22:28.175Z,21.80
2018-07-27T17:25:32.007Z,22.52
2018-07-27T17:28:35.334Z,22.38
2018-07-27T17:31:38.563Z,22.78
2018-07-27T17:34:41.770Z,22.68
2018-07-27T17:37:44.976Z,22.86
2018-07-27T17:40:48.376Z,24.21
2018-07-27T17:43:51.639Z,23.40
2018-07-27T17:46:54.951Z,23.56
2018-07-27T17:49:58.243Z,24.11
2018-07-27T17:53:01.452Z,24.62
2018-07-27T17:56:04.777Z,24.31
2018-07-27T17:59:08.008Z,24.74
2018-07-27T18:02:11.231Z,24.47
2018-07-27T18:05:14.657Z,24.26
2018-07-27T18:08:17.907Z,24.83
2018-07-27T18:11:21.114Z,24.90
2018-07-27T18:14:24.400Z,25.25
2018-07-27T18:17:27.748Z,25.36
2018-07-27T18:20:31.020Z,25.21
2018-07-27T18:23:34.383Z,25.57
2018-07-27T18:26:37.840Z,25.83
2018-07-27T18:29:41.133Z,26.08
2018-07-27T18:32:44.304Z,26.78
2018-07-27T18:35:47.609Z,26.74
2018-07-27T18:38:50.897Z,26.80
2018-07-27T18:41:54.112Z,27.29
2018-07-27T18:44:57.478Z,27.43
2018-07-27T18:48:00.873Z,27.36
2018-07-27T18:51:04.188Z,27.70
2018-07-27T18:54:07.509Z,27.86
2018-07-27T18:57:11.109Z,28.14
2018-07-27T19:00:14.293Z,28.62
2018-07-27T19:03:17.483Z,28.88
2018-07-27T19:06:20.780Z,29.30
2018-07-27T19:09:23.984Z,29.56
2018-07-27T19:12:27.295Z,30.07
2018-07-27T19:15:30.885Z,29.68
2018-07-27T19:18:34.064Z,30.28
2018-07-27T19:21:37.250Z,30.43
2018-07-27T19:24:40.888Z,30.72
2018-07-27T19:27:44.064Z,31.32
2018-07-27T19:30:47.383Z,31.38
2018-07-27T19:33:50.672Z,31.65
2018-07-27T19:36:53.976Z,31.77
2018-07-27T19:39:57.262Z,31.61
2018-07-27T19:43:00.532Z,32.59
2018-07-27T19:46:03.743Z,33.00
2018-07-27T19:49:07.152Z,32.90
2018-07-27T19:52:10.438Z,33.53
2018-07-27T19:55:13.595Z,33.65
2018-07-27T19:58:16.848Z,33.35
2018-07-27T20:01:20.119Z,33.76
2018-07-27T20:04:23.577Z,34.40
2018-07-27T20:07:26.840Z,34.46
2018-07-27T20:10:30.346Z,34.36
2018-07-27T20:13:33.636Z,34.61
2018-07-27T20:16:36.827Z,35.05
2018-07-27T20:19:40.208Z,34.84
2018-07-27T20:22:43.535Z,35.25
2018-07-27T20:25:46.912Z,34.85
2018-07-27T20:28:50.252Z,35.44
2018-07-27T20:31:53.615Z,35.86
2018-07-27T20:34:57.262Z,36.16
2018-07-27T20:38:00.530Z,35.81
2018-07-27T20:41:03.842Z,36.10
2018-07-27T20:44:07.125Z,36.26
2018-07-27T20:47:10.350Z,37.08
2018-07-27T20:50:13.623Z,37.38
2018-07-27T20:53:17.000Z,37.63
2018-07-27T20:56:20.258Z,37.34
2018-07-27T20:59:23.701Z,37.33
2018-07-27T21:02:27.113Z,37.65
2018-07-27T21:05:30.423Z,37.27
2018-07-27T21:08:33.954Z,38.05
2018-07-27T21:11:37.383Z,38.19
2018-07-27T21:14:40.702Z,37.90
2018-07-27T21:17:45.044Z,38.36
2018-07-27T21:20:49.362Z,38.41
2018-07-27T21:23:52.743Z,39.20
2018-07-27T21:26:56.059Z,38.04
2018-07-27T21:29:59.367Z,39.07
2018-07-27T21:33:02.654Z,39.42
2018-07-27T21:36:06.040Z,39.32
2018-07-27T21:39:11.532Z,39.25
2018-07-27T21:42:14.795Z,39.58
2018-07-27T21:45:18.006Z,39.55
2018-07-27T21:48:21.378Z,39.44
2018-07-27T21:51:24.701Z,40.01
2018-07-27T21:54:27.968Z,40.23
2018-07-27T21:57:31.331Z,40.17
2018-07-27T22:00:34.824Z,40.47
2018-07-27T22:03:38.269Z,40.66
2018-07-27T22:06:42.647Z,40.78
2018-07-27T22:09:45.946Z,40.90
2018-07-27T22:12:49.247Z,41.20
2018-07-27T22:15:52.619Z,41.39
2018-07-27T22:18:56.968Z,41.18
2018-07-27T22:22:00.296Z,40.96
2018-07-27T22:25:03.668Z,41.06
2018-07-27T22:28:06.979Z,41.46
2018-07-27T22:31:10.203Z,40.59
2018-07-27T22:34:13.483Z,41.41
2018-07-27T22:37:16.814Z,41.39
2018-07-27T22:40:20.111Z,41.75
2018-07-27T22:43:23.368Z,41.56
2018-07-27T22:46:26.747Z,41.87
2018-07-27T22:49:30.036Z,41.57
2018-07-27T22:52:40.571Z,41.91
2018-07-27T22:55:43.928Z,41.96
2018-07-27T22:58:47.202Z,41.74
2018-07-27T23:01:50.514Z,42.14
2018-07-27T23:04:53.810Z,42.29
2018-07-27T23:07:57.065Z,42.06
2018-07-27T23:11:00.263Z,41.96
2018-07-27T23:14:03.608Z,42.00
2018-07-27T23:17:06.887Z,41.51
2018-07-27T23:20:12.757Z,42.39
2018-07-27T23:23:16.119Z,42.51
2018-07-27T23:26:19.415Z,42.10
2018-07-27T23:29:22.596Z,42.53
2018-07-27T23:32:25.848Z,42.72
2018-07-27T23:35:29.227Z,42.86
2018-07-27T23:38:32.503Z,42.37
2018-07-27T23:41:35.706Z,42.52
2018-07-27T23:44:38.890Z,42.76
2018-07-27T23:47:42.188Z,42.52
2018-07-27T23:50:45.488Z,42.50
2018-07-27T23:53:48.799Z,42.67
2018-07-27T23:56:52.063Z,43.08
2018-07-27T23:59:55.411Z,43.01
